sensor_id;sensor_type;location;lat;lon;timestamp;pressure;altitude;pressure_sealevel;temperature;humidity
26978;BME280;56314;48.088;11.642;2023-04-21T00:00:16;95042.22;;;5.86;97.14
26978;BME280;56314;48.088;11.642;2023-04-21T00:02:41;95037.63;;;5.90;97.40
26978;BME280;56314;48.088;11.642;2023-04-21T00:05:08;95036.69;;;5.91;97.14
26978;BME280;56314;48.088;11.642;2023-04-21T00:07:38;95030.56;;;5.92;97.38
26978;BME280;56314;48.088;11.642;2023-04-21T00:10:09;95026.81;;;5.96;97.70
26978;BME280;56314;48.088;11.642;2023-04-21T00:12:34;95019.00;;;5.96;97.73
26978;BME280;56314;48.088;11.642;2023-04-21T00:15:00;95019.19;;;5.93;97.38
26978;BME280;56314;48.088;11.642;2023-04-21T00:17:25;95031.19;;;5.96;97.49
26978;BME280;56314;48.088;11.642;2023-04-21T00:19:51;95017.16;;;5.98;97.67
26978;BME280;56314;48.088;11.642;2023-04-21T00:22:17;95018.84;;;5.99;97.67
26978;BME280;56314;48.088;11.642;2023-04-21T00:24:43;95010.16;;;5.99;97.54
26978;BME280;56314;48.088;11.642;2023-04-21T00:27:08;95016.13;;;6.01;97.84
26978;BME280;56314;48.088;11.642;2023-04-21T00:29:35;95031.00;;;5.99;97.38
26978;BME280;56314;48.088;11.642;2023-04-21T00:32:01;95024.22;;;5.96;97.38
26978;BME280;56314;48.088;11.642;2023-04-21T00:34:28;95019.84;;;5.97;98.07
26978;BME280;56314;48.088;11.642;2023-04-21T00:36:53;95010.44;;;5.94;97.71
26978;BME280;56314;48.088;11.642;2023-04-21T00:39:18;95006.91;;;5.95;97.71
26978;BME280;56314;48.088;11.642;2023-04-21T00:41:44;95010.34;;;5.96;97.71
26978;BME280;56314;48.088;11.642;2023-04-21T00:44:09;95003.25;;;5.98;97.82
26978;BME280;56314;48.088;11.642;2023-04-21T00:46:35;95002.53;;;5.96;97.50
26978;BME280;56314;48.088;11.642;2023-04-21T00:49:04;94996.69;;;5.92;97.52
26978;BME280;56314;48.088;11.642;2023-04-21T00:51:32;94990.06;;;6.01;97.30
26978;BME280;56314;48.088;11.642;2023-04-21T00:53:58;95010.09;;;6.00;96.81
26978;BME280;56314;48.088;11.642;2023-04-21T00:56:25;95005.81;;;5.99;97.00
26978;BME280;56314;48.088;11.642;2023-04-21T00:58:51;95004.66;;;6.04;97.23
26978;BME280;56314;48.088;11.642;2023-04-21T01:01:17;94989.13;;;6.02;96.23
26978;BME280;56314;48.088;11.642;2023-04-21T01:03:43;94981.31;;;6.02;96.71
26978;BME280;56314;48.088;11.642;2023-04-21T01:06:09;94980.19;;;6.06;96.49
26978;BME280;56314;48.088;11.642;2023-04-21T01:08:34;94985.91;;;6.11;97.21
26978;BME280;56314;48.088;11.642;2023-04-21T01:11:08;94982.50;;;6.11;97.14
26978;BME280;56314;48.088;11.642;2023-04-21T01:13:33;94978.41;;;6.07;97.68
26978;BME280;56314;48.088;11.642;2023-04-21T01:15:58;94988.19;;;6.03;97.52
26978;BME280;56314;48.088;11.642;2023-04-21T01:18:24;94971.06;;;5.99;97.62
26978;BME280;56314;48.088;11.642;2023-04-21T01:20:49;94979.28;;;5.93;97.48
26978;BME280;56314;48.088;11.642;2023-04-21T01:23:14;94982.72;;;5.93;97.39
26978;BME280;56314;48.088;11.642;2023-04-21T01:25:42;94982.81;;;5.92;98.82
26978;BME280;56314;48.088;11.642;2023-04-21T01:28:07;94989.59;;;5.94;98.91
26978;BME280;56314;48.088;11.642;2023-04-21T01:30:32;94998.34;;;5.93;99.14
26978;BME280;56314;48.088;11.642;2023-04-21T01:32:58;94991.69;;;5.89;98.65
26978;BME280;56314;48.088;11.642;2023-04-21T01:35:24;94981.78;;;5.94;98.17
26978;BME280;56314;48.088;11.642;2023-04-21T01:37:50;94988.78;;;5.94;98.39
26978;BME280;56314;48.088;11.642;2023-04-21T01:40:15;94996.47;;;5.95;98.63
26978;BME280;56314;48.088;11.642;2023-04-21T01:42:41;94990.44;;;5.95;98.22
26978;BME280;56314;48.088;11.642;2023-04-21T01:45:07;95002.63;;;5.94;98.27
26978;BME280;56314;48.088;11.642;2023-04-21T01:47:33;95005.25;;;5.94;98.19
26978;BME280;56314;48.088;11.642;2023-04-21T01:49:59;94997.06;;;6.00;98.71
26978;BME280;56314;48.088;11.642;2023-04-21T01:52:24;94991.91;;;5.99;98.41
26978;BME280;56314;48.088;11.642;2023-04-21T01:54:49;94995.66;;;5.95;98.30
26978;BME280;56314;48.088;11.642;2023-04-21T01:57:15;94991.28;;;5.95;98.21
26978;BME280;56314;48.088;11.642;2023-04-21T01:59:41;94986.16;;;5.94;98.42
26978;BME280;56314;48.088;11.642;2023-04-21T02:02:06;94988.66;;;5.95;98.36
26978;BME280;56314;48.088;11.642;2023-04-21T02:04:32;94989.28;;;5.99;98.54
26978;BME280;56314;48.088;11.642;2023-04-21T02:06:58;94995.75;;;5.93;98.68
26978;BME280;56314;48.088;11.642;2023-04-21T02:09:23;94989.59;;;5.94;98.42
26978;BME280;56314;48.088;11.642;2023-04-21T02:11:48;94987.84;;;5.95;98.11
26978;BME280;56314;48.088;11.642;2023-04-21T02:14:14;94991.28;;;5.95;97.73
26978;BME280;56314;48.088;11.642;2023-04-21T02:16:39;94991.28;;;5.95;97.81
26978;BME280;56314;48.088;11.642;2023-04-21T02:19:04;94989.78;;;5.91;97.78
26978;BME280;56314;48.088;11.642;2023-04-21T02:21:30;94986.25;;;5.92;97.52
26978;BME280;56314;48.088;11.642;2023-04-21T02:23:57;94977.31;;;5.96;97.99
26978;BME280;56314;48.088;11.642;2023-04-21T02:26:22;94981.78;;;5.94;97.87
26978;BME280;56314;48.088;11.642;2023-04-21T02:28:47;94970.72;;;5.91;98.67
26978;BME280;56314;48.088;11.642;2023-04-21T02:31:14;94973.44;;;5.89;98.84
26978;BME280;56314;48.088;11.642;2023-04-21T02:33:40;94970.72;;;5.91;98.90
26978;BME280;56314;48.088;11.642;2023-04-21T02:36:05;94966.25;;;5.93;98.93
26978;BME280;56314;48.088;11.642;2023-04-21T02:38:31;94964.88;;;5.87;99.01
26978;BME280;56314;48.088;11.642;2023-04-21T02:40:56;94969.25;;;5.86;99.10
26978;BME280;56314;48.088;11.642;2023-04-21T02:43:22;94960.59;;;5.86;99.24
26978;BME280;56314;48.088;11.642;2023-04-21T02:45:47;94958.00;;;5.86;98.67
26978;BME280;56314;48.088;11.642;2023-04-21T02:48:13;94954.47;;;5.87;98.89
26978;BME280;56314;48.088;11.642;2023-04-21T02:50:38;94961.44;;;5.86;98.60
26978;BME280;56314;48.088;11.642;2023-04-21T02:53:04;94967.50;;;5.87;98.63
26978;BME280;56314;48.088;11.642;2023-04-21T02:55:30;94964.03;;;5.86;98.38
26978;BME280;56314;48.088;11.642;2023-04-21T02:57:55;94958.19;;;5.83;98.78
26978;BME280;56314;48.088;11.642;2023-04-21T03:00:20;94961.63;;;5.83;98.11
26978;BME280;56314;48.088;11.642;2023-04-21T03:02:46;94961.63;;;5.83;97.70
26978;BME280;56314;48.088;11.642;2023-04-21T03:05:11;94968.19;;;5.76;98.60
26978;BME280;56314;48.088;11.642;2023-04-21T03:07:37;94966.63;;;5.74;99.08
26978;BME280;56314;48.088;11.642;2023-04-21T03:10:02;94969.31;;;5.72;99.60
26978;BME280;56314;48.088;11.642;2023-04-21T03:12:28;94964.94;;;5.73;99.53
26978;BME280;56314;48.088;11.642;2023-04-21T03:14:53;94968.38;;;5.73;99.18
26978;BME280;56314;48.088;11.642;2023-04-21T03:17:19;94968.47;;;5.72;99.15
26978;BME280;56314;48.088;11.642;2023-04-21T03:19:44;94968.47;;;5.72;99.33
26978;BME280;56314;48.088;11.642;2023-04-21T03:22:09;94972.47;;;5.77;98.72
26978;BME280;56314;48.088;11.642;2023-04-21T03:24:35;94976.00;;;5.76;99.13
26978;BME280;56314;48.088;11.642;2023-04-21T03:27:00;94968.47;;;5.72;99.24
26978;BME280;56314;48.088;11.642;2023-04-21T03:29:26;94966.56;;;5.61;99.67
26978;BME280;56314;48.088;11.642;2023-04-21T03:31:52;94966.47;;;5.62;99.94
26978;BME280;56314;48.088;11.642;2023-04-21T03:34:17;94970.22;;;5.58;100.00
26978;BME280;56314;48.088;11.642;2023-04-21T03:36:42;94956.81;;;5.64;100.00
26978;BME280;56314;48.088;11.642;2023-04-21T03:39:07;94950.41;;;5.55;100.00
26978;BME280;56314;48.088;11.642;2023-04-21T03:41:33;94960.09;;;5.53;99.64
26978;BME280;56314;48.088;11.642;2023-04-21T03:43:58;94961.19;;;5.49;100.00
26978;BME280;56314;48.088;11.642;2023-04-21T03:46:24;94968.72;;;5.54;99.89
26978;BME280;56314;48.088;11.642;2023-04-21T03:48:49;94973.41;;;5.49;99.69
26978;BME280;56314;48.088;11.642;2023-04-21T03:51:15;94973.41;;;5.49;99.61
26978;BME280;56314;48.088;11.642;2023-04-21T03:53:40;94979.25;;;5.52;99.53
26978;BME280;56314;48.088;11.642;2023-04-21T03:56:06;94964.41;;;5.40;100.00
26978;BME280;56314;48.088;11.642;2023-04-21T03:58:31;94969.09;;;5.35;100.00
26978;BME280;56314;48.088;11.642;2023-04-21T04:00:57;94976.22;;;5.31;100.00
26978;BME280;56314;48.088;11.642;2023-04-21T04:03:22;94977.91;;;5.32;100.00
26978;BME280;56314;48.088;11.642;2023-04-21T04:05:47;94968.13;;;5.36;100.00
26978;BME280;56314;48.088;11.642;2023-04-21T04:08:13;94966.25;;;5.38;100.00
26978;BME280;56314;48.088;11.642;2023-04-21T04:10:38;94969.28;;;5.32;100.00
26978;BME280;56314;48.088;11.642;2023-04-21T04:13:03;94976.34;;;5.30;100.00
26978;BME280;56314;48.088;11.642;2023-04-21T04:15:29;94972.47;;;5.22;100.00
26978;BME280;56314;48.088;11.642;2023-04-21T04:17:54;94977.44;;;5.26;100.00
26978;BME280;56314;48.088;11.642;2023-04-21T04:20:20;94977.56;;;5.24;100.00
26978;BME280;56314;48.088;11.642;2023-04-21T04:22:45;94987.97;;;5.24;100.00
26978;BME280;56314;48.088;11.642;2023-04-21T04:25:11;94983.81;;;5.21;100.00
26978;BME280;56314;48.088;11.642;2023-04-21T04:27:39;94982.75;;;5.24;100.00
26978;BME280;56314;48.088;11.642;2023-04-21T04:30:05;94978.38;;;5.24;100.00
26978;BME280;56314;48.088;11.642;2023-04-21T04:32:31;94973.09;;;5.26;100.00
26978;BME280;56314;48.088;11.642;2023-04-21T04:34:57;94983.03;;;5.34;100.00
26978;BME280;56314;48.088;11.642;2023-04-21T04:37:23;94976.22;;;5.31;99.11
26978;BME280;56314;48.088;11.642;2023-04-21T04:39:52;94980.16;;;5.24;99.63
26978;BME280;56314;48.088;11.642;2023-04-21T04:42:17;94983.81;;;5.21;99.47
26978;BME280;56314;48.088;11.642;2023-04-21T04:44:44;94983.06;;;5.19;99.84
26978;BME280;56314;48.088;11.642;2023-04-21T04:47:11;94974.50;;;5.17;99.67
26978;BME280;56314;48.088;11.642;2023-04-21T04:49:36;94973.56;;;5.18;100.00
26978;BME280;56314;48.088;11.642;2023-04-21T04:52:02;94987.41;;;5.19;100.00
26978;BME280;56314;48.088;11.642;2023-04-21T04:54:27;94988.34;;;5.18;100.00
26978;BME280;56314;48.088;11.642;2023-04-21T04:56:53;94990.00;;;5.19;100.00
26978;BME280;56314;48.088;11.642;2023-04-21T04:59:18;94986.28;;;5.23;100.00
26978;BME280;56314;48.088;11.642;2023-04-21T05:01:44;94991.59;;;5.21;100.00
26978;BME280;56314;48.088;11.642;2023-04-21T05:04:10;94991.13;;;5.29;100.00
26978;BME280;56314;48.088;11.642;2023-04-21T05:06:35;94996.13;;;5.32;100.00
26978;BME280;56314;48.088;11.642;2023-04-21T05:09:01;94994.38;;;5.33;99.62
26978;BME280;56314;48.088;11.642;2023-04-21T05:11:26;95000.03;;;5.39;99.50
26978;BME280;56314;48.088;11.642;2023-04-21T05:13:52;95007.28;;;5.34;99.53
26978;BME280;56314;48.088;11.642;2023-04-21T05:16:17;95003.75;;;5.35;99.82
26978;BME280;56314;48.088;11.642;2023-04-21T05:18:42;94994.53;;;5.44;99.94
26978;BME280;56314;48.088;11.642;2023-04-21T05:21:08;95005.47;;;5.49;99.77
26978;BME280;56314;48.088;11.642;2023-04-21T05:23:33;95003.31;;;5.56;99.02
26978;BME280;56314;48.088;11.642;2023-04-21T05:25:58;95009.28;;;5.58;97.87
26978;BME280;56314;48.088;11.642;2023-04-21T05:28:24;95011.28;;;5.67;96.44
26978;BME280;56314;48.088;11.642;2023-04-21T05:30:50;95002.66;;;5.67;96.71
26978;BME280;56314;48.088;11.642;2023-04-21T05:33:17;95013.41;;;5.75;96.13
26978;BME280;56314;48.088;11.642;2023-04-21T05:35:43;95009.75;;;5.78;96.33
26978;BME280;56314;48.088;11.642;2023-04-21T05:38:09;95013.91;;;5.95;94.99
26978;BME280;56314;48.088;11.642;2023-04-21T05:40:34;95014.47;;;6.00;94.32
26978;BME280;56314;48.088;11.642;2023-04-21T05:43:00;95003.22;;;5.99;94.59
26978;BME280;56314;48.088;11.642;2023-04-21T05:45:25;94998.22;;;6.09;94.20
26978;BME280;56314;48.088;11.642;2023-04-21T05:47:50;94997.09;;;6.26;94.21
26978;BME280;56314;48.088;11.642;2023-04-21T05:50:16;94998.88;;;6.39;93.86
26978;BME280;56314;48.088;11.642;2023-04-21T05:52:41;94997.97;;;6.53;92.93
26978;BME280;56314;48.088;11.642;2023-04-21T05:55:06;94987.53;;;6.78;90.85
26978;BME280;56314;48.088;11.642;2023-04-21T05:57:32;94988.03;;;6.97;89.35
26978;BME280;56314;48.088;11.642;2023-04-21T05:59:57;94990.16;;;7.29;87.87
26978;BME280;56314;48.088;11.642;2023-04-21T06:02:22;94976.72;;;7.95;82.84
26978;BME280;56314;48.088;11.642;2023-04-21T06:04:48;94970.06;;;8.62;80.01
26978;BME280;56314;48.088;11.642;2023-04-21T06:07:13;94975.91;;;9.22;75.95
26978;BME280;56314;48.088;11.642;2023-04-21T06:09:39;94973.31;;;9.66;72.03
26978;BME280;56314;48.088;11.642;2023-04-21T06:12:05;94979.75;;;9.74;71.60
26978;BME280;56314;48.088;11.642;2023-04-21T06:14:31;94975.38;;;9.95;69.82
26978;BME280;56314;48.088;11.642;2023-04-21T06:16:56;94976.44;;;10.25;69.15
26978;BME280;56314;48.088;11.642;2023-04-21T06:19:22;94972.00;;;10.58;69.22
26978;BME280;56314;48.088;11.642;2023-04-21T06:21:47;94962.41;;;10.69;66.15
26978;BME280;56314;48.088;11.642;2023-04-21T06:24:12;94963.34;;;10.68;65.19
26978;BME280;56314;48.088;11.642;2023-04-21T06:26:38;94967.66;;;10.69;64.42
26978;BME280;56314;48.088;11.642;2023-04-21T06:29:04;94960.72;;;10.99;64.12
26978;BME280;56314;48.088;11.642;2023-04-21T06:31:29;94961.22;;;11.74;62.18
26978;BME280;56314;48.088;11.642;2023-04-21T06:33:55;94945.75;;;12.50;59.93
26978;BME280;56314;48.088;11.642;2023-04-21T06:36:20;94943.56;;;13.20;56.56
26978;BME280;56314;48.088;11.642;2023-04-21T06:38:48;94938.44;;;13.93;54.91
26978;BME280;56314;48.088;11.642;2023-04-21T06:41:13;94941.00;;;14.39;52.75
26978;BME280;56314;48.088;11.642;2023-04-21T06:43:39;94938.25;;;14.93;50.89
26978;BME280;56314;48.088;11.642;2023-04-21T06:46:05;94936.44;;;15.79;49.08
26978;BME280;56314;48.088;11.642;2023-04-21T06:48:30;94946.59;;;16.00;47.20
26978;BME280;56314;48.088;11.642;2023-04-21T06:50:56;94937.50;;;15.87;48.65
26978;BME280;56314;48.088;11.642;2023-04-21T06:53:21;94936.03;;;16.42;46.04
26978;BME280;56314;48.088;11.642;2023-04-21T06:55:47;94945.53;;;15.26;48.92
26978;BME280;56314;48.088;11.642;2023-04-21T06:58:13;94951.63;;;14.47;51.20
26978;BME280;56314;48.088;11.642;2023-04-21T07:00:38;94942.38;;;14.43;51.95
26978;BME280;56314;48.088;11.642;2023-04-21T07:03:04;94947.06;;;14.13;52.08
26978;BME280;56314;48.088;11.642;2023-04-21T07:05:30;94957.06;;;13.45;54.38
26978;BME280;56314;48.088;11.642;2023-04-21T07:07:56;94955.13;;;13.47;55.90
26978;BME280;56314;48.088;11.642;2023-04-21T07:10:25;94958.84;;;13.17;56.15
26978;BME280;56314;48.088;11.642;2023-04-21T07:12:50;94952.38;;;12.63;57.76
26978;BME280;56314;48.088;11.642;2023-04-21T07:15:15;94952.94;;;12.38;59.15
26978;BME280;56314;48.088;11.642;2023-04-21T07:17:41;94942.97;;;12.51;58.47
26978;BME280;56314;48.088;11.642;2023-04-21T07:20:07;94939.91;;;12.56;58.84
26978;BME280;56314;48.088;11.642;2023-04-21T07:22:32;94940.44;;;12.59;58.62
26978;BME280;56314;48.088;11.642;2023-04-21T07:25:01;94940.75;;;12.46;59.55
26978;BME280;56314;48.088;11.642;2023-04-21T07:27:26;94935.78;;;13.29;56.79
26978;BME280;56314;48.088;11.642;2023-04-21T07:29:51;94923.50;;;14.64;53.01
26978;BME280;56314;48.088;11.642;2023-04-21T07:32:16;94928.97;;;15.15;51.47
26978;BME280;56314;48.088;11.642;2023-04-21T07:34:42;94936.94;;;14.71;53.47
26978;BME280;56314;48.088;11.642;2023-04-21T07:37:10;94934.91;;;14.02;53.60
26978;BME280;56314;48.088;11.642;2023-04-21T07:39:35;94936.56;;;14.03;53.32
26978;BME280;56314;48.088;11.642;2023-04-21T07:42:00;94934.47;;;14.25;53.53
26978;BME280;56314;48.088;11.642;2023-04-21T07:44:26;94933.53;;;14.34;53.96
26978;BME280;56314;48.088;11.642;2023-04-21T07:46:53;94937.25;;;14.05;54.27
26978;BME280;56314;48.088;11.642;2023-04-21T07:49:18;94945.34;;;13.58;55.64
26978;BME280;56314;48.088;11.642;2023-04-21T07:51:44;94955.75;;;13.31;56.36
26978;BME280;56314;48.088;11.642;2023-04-21T07:54:09;94951.59;;;13.57;57.27
26978;BME280;56314;48.088;11.642;2023-04-21T07:56:35;94947.97;;;13.85;54.99
26978;BME280;56314;48.088;11.642;2023-04-21T07:59:00;94941.53;;;14.06;55.99
26978;BME280;56314;48.088;11.642;2023-04-21T08:01:26;94939.13;;;14.75;53.20
26978;BME280;56314;48.088;11.642;2023-04-21T08:03:51;94934.19;;;15.07;52.02
26978;BME280;56314;48.088;11.642;2023-04-21T08:06:16;94938.50;;;15.08;51.10
26978;BME280;56314;48.088;11.642;2023-04-21T08:08:41;94934.84;;;16.03;50.51
26978;BME280;56314;48.088;11.642;2023-04-21T08:11:07;94941.00;;;16.12;48.57
26978;BME280;56314;48.088;11.642;2023-04-21T08:13:32;94941.06;;;15.77;49.21
26978;BME280;56314;48.088;11.642;2023-04-21T08:15:57;94937.53;;;15.17;51.18
26978;BME280;56314;48.088;11.642;2023-04-21T08:18:23;94942.16;;;14.62;53.34
26978;BME280;56314;48.088;11.642;2023-04-21T08:20:48;94952.78;;;14.08;54.64
26978;BME280;56314;48.088;11.642;2023-04-21T08:23:14;94957.09;;;14.09;54.56
26978;BME280;56314;48.088;11.642;2023-04-21T08:25:39;94948.28;;;14.45;55.46
26978;BME280;56314;48.088;11.642;2023-04-21T08:28:05;94943.31;;;15.13;52.13
26978;BME280;56314;48.088;11.642;2023-04-21T08:30:30;94932.06;;;16.46;49.81
26978;BME280;56314;48.088;11.642;2023-04-21T08:32:55;94940.69;;;17.37;45.46
26978;BME280;56314;48.088;11.642;2023-04-21T08:35:21;94932.31;;;17.97;46.07
26978;BME280;56314;48.088;11.642;2023-04-21T08:37:46;94926.28;;;18.65;44.13
26978;BME280;56314;48.088;11.642;2023-04-21T08:40:13;94927.16;;;19.55;41.98
26978;BME280;56314;48.088;11.642;2023-04-21T08:42:38;94933.09;;;20.02;41.03
26978;BME280;56314;48.088;11.642;2023-04-21T08:45:04;94926.00;;;20.53;39.84
26978;BME280;56314;48.088;11.642;2023-04-21T08:47:31;94922.31;;;20.54;40.13
26978;BME280;56314;48.088;11.642;2023-04-21T08:49:57;94925.34;;;21.01;38.71
26978;BME280;56314;48.088;11.642;2023-04-21T08:52:23;94924.38;;;20.80;38.71
26978;BME280;56314;48.088;11.642;2023-04-21T08:54:48;94917.00;;;20.82;39.21
26978;BME280;56314;48.088;11.642;2023-04-21T08:57:18;94921.28;;;21.82;36.65
26978;BME280;56314;48.088;11.642;2023-04-21T08:59:44;94918.88;;;22.14;36.99
26978;BME280;56314;48.088;11.642;2023-04-21T09:02:13;94909.31;;;22.67;35.70
26978;BME280;56314;48.088;11.642;2023-04-21T09:04:47;94915.47;;;21.72;35.88
26978;BME280;56314;48.088;11.642;2023-04-21T09:07:34;94918.50;;;20.41;39.46
26978;BME280;56314;48.088;11.642;2023-04-21T09:10:00;94918.88;;;19.95;40.33
26978;BME280;56314;48.088;11.642;2023-04-21T09:12:28;94913.06;;;19.40;40.44
26978;BME280;56314;48.088;11.642;2023-04-21T09:14:53;94920.38;;;18.92;41.73
26978;BME280;56314;48.088;11.642;2023-04-21T09:17:21;94917.41;;;18.72;41.57
26978;BME280;56314;48.088;11.642;2023-04-21T09:19:47;94919.94;;;19.04;41.54
26978;BME280;56314;48.088;11.642;2023-04-21T09:22:16;94926.97;;;18.82;42.41
26978;BME280;56314;48.088;11.642;2023-04-21T09:24:47;94916.97;;;18.84;41.46
26978;BME280;56314;48.088;11.642;2023-04-21T09:27:14;94911.50;;;19.97;39.14
26978;BME280;56314;48.088;11.642;2023-04-21T09:29:45;94907.72;;;21.06;38.29
26978;BME280;56314;48.088;11.642;2023-04-21T09:32:15;94909.50;;;21.70;35.92
26978;BME280;56314;48.088;11.642;2023-04-21T09:34:41;94901.09;;;22.48;34.47
26978;BME280;56314;48.088;11.642;2023-04-21T09:37:10;94915.78;;;22.04;34.69
26978;BME280;56314;48.088;11.642;2023-04-21T09:39:35;94910.84;;;22.01;36.84
26978;BME280;56314;48.088;11.642;2023-04-21T09:42:01;94911.75;;;21.24;35.88
26978;BME280;56314;48.088;11.642;2023-04-21T09:44:27;94911.06;;;20.58;38.09
26978;BME280;56314;48.088;11.642;2023-04-21T09:47:02;94914.38;;;19.80;39.69
26978;BME280;56314;48.088;11.642;2023-04-21T09:49:34;94916.63;;;19.02;41.92
26978;BME280;56314;48.088;11.642;2023-04-21T09:52:09;94921.06;;;18.71;42.60
26978;BME280;56314;48.088;11.642;2023-04-21T09:54:35;94919.19;;;18.95;42.14
26978;BME280;56314;48.088;11.642;2023-04-21T09:57:06;94918.06;;;18.89;42.44
26978;BME280;56314;48.088;11.642;2023-04-21T09:59:37;94913.06;;;18.56;43.38
26978;BME280;56314;48.088;11.642;2023-04-21T10:02:06;94899.38;;;19.43;42.39
26978;BME280;56314;48.088;11.642;2023-04-21T10:04:32;94905.78;;;20.65;41.29
26978;BME280;56314;48.088;11.642;2023-04-21T10:06:59;94907.34;;;21.51;40.10
26978;BME280;56314;48.088;11.642;2023-04-21T10:09:28;94901.22;;;22.33;36.96
26978;BME280;56314;48.088;11.642;2023-04-21T10:11:55;94889.50;;;22.34;36.93
26978;BME280;56314;48.088;11.642;2023-04-21T10:14:23;94881.28;;;22.22;37.40
26978;BME280;56314;48.088;11.642;2023-04-21T10:16:56;94878.44;;;22.78;35.50
26978;BME280;56314;48.088;11.642;2023-04-21T10:19:26;94867.59;;;23.45;35.99
26978;BME280;56314;48.088;11.642;2023-04-21T10:21:55;94873.41;;;23.80;35.06
26978;BME280;56314;48.088;11.642;2023-04-21T10:24:22;94869.81;;;24.00;34.30
26978;BME280;56314;48.088;11.642;2023-04-21T10:26:49;94874.72;;;23.64;36.52
26978;BME280;56314;48.088;11.642;2023-04-21T10:29:14;94878.44;;;22.57;37.93
26978;BME280;56314;48.088;11.642;2023-04-21T10:39:10;94878.03;;;22.47;37.17
26978;BME280;56314;48.088;11.642;2023-04-21T10:41:37;94870.31;;;23.25;38.86
26978;BME280;56314;48.088;11.642;2023-04-21T10:46:35;94869.22;;;23.52;37.28
26978;BME280;56314;48.088;11.642;2023-04-21T10:49:23;94866.13;;;23.56;37.66
26978;BME280;56314;48.088;11.642;2023-04-21T10:54:24;94863.88;;;23.85;35.41
26978;BME280;56314;48.088;11.642;2023-04-21T10:56:54;94862.78;;;22.81;33.79
26978;BME280;56314;48.088;11.642;2023-04-21T10:59:20;94867.09;;;22.89;34.43
26978;BME280;56314;48.088;11.642;2023-04-21T11:01:46;94858.41;;;22.20;34.62
26978;BME280;56314;48.088;11.642;2023-04-21T11:04:18;94861.09;;;21.99;36.14
26978;BME280;56314;48.088;11.642;2023-04-21T11:09:41;94858.53;;;21.64;36.37
26978;BME280;56314;48.088;11.642;2023-04-21T11:12:11;94847.53;;;22.08;37.86
26978;BME280;56314;48.088;11.642;2023-04-21T11:14:39;94845.69;;;22.82;36.70
26978;BME280;56314;48.088;11.642;2023-04-21T11:17:10;94840.94;;;22.91;34.77
26978;BME280;56314;48.088;11.642;2023-04-21T11:19:36;94848.56;;;22.67;36.13
26978;BME280;56314;48.088;11.642;2023-04-21T11:22:03;94835.63;;;22.71;36.79
26978;BME280;56314;48.088;11.642;2023-04-21T11:24:28;94838.50;;;22.22;36.67
26978;BME280;56314;48.088;11.642;2023-04-21T11:26:54;94839.72;;;22.33;37.12
26978;BME280;56314;48.088;11.642;2023-04-21T11:29:20;94833.31;;;22.21;35.04
26978;BME280;56314;48.088;11.642;2023-04-21T11:31:46;94842.72;;;21.76;36.93
26978;BME280;56314;48.088;11.642;2023-04-21T11:34:15;94838.19;;;21.63;38.40
26978;BME280;56314;48.088;11.642;2023-04-21T11:36:44;94828.38;;;21.97;38.28
26978;BME280;56314;48.088;11.642;2023-04-21T11:39:11;94832.28;;;21.88;37.12
26978;BME280;56314;48.088;11.642;2023-04-21T11:41:39;94827.97;;;21.94;37.29
26978;BME280;56314;48.088;11.642;2023-04-21T11:44:05;94836.19;;;22.06;37.20
26978;BME280;56314;48.088;11.642;2023-04-21T11:46:31;94839.09;;;22.11;37.85
26978;BME280;56314;48.088;11.642;2023-04-21T11:49:09;94833.31;;;21.94;36.15
26978;BME280;56314;48.088;11.642;2023-04-21T11:51:37;94835.59;;;22.10;35.76
26978;BME280;56314;48.088;11.642;2023-04-21T11:54:08;94828.59;;;22.03;34.61
26978;BME280;56314;48.088;11.642;2023-04-21T11:56:41;94831.25;;;22.09;35.65
26978;BME280;56314;48.088;11.642;2023-04-21T12:01:33;94840.72;;;21.36;37.09
26978;BME280;56314;48.088;11.642;2023-04-21T12:03:58;94843.53;;;21.21;36.41
26978;BME280;56314;48.088;11.642;2023-04-21T12:06:24;94843.06;;;21.04;38.03
26978;BME280;56314;48.088;11.642;2023-04-21T12:08:55;94835.06;;;21.11;39.92
26978;BME280;56314;48.088;11.642;2023-04-21T12:11:26;94836.88;;;21.52;39.21
26978;BME280;56314;48.088;11.642;2023-04-21T12:13:52;94842.69;;;21.63;38.75
26978;BME280;56314;48.088;11.642;2023-04-21T12:16:17;94837.56;;;21.68;41.21
26978;BME280;56314;48.088;11.642;2023-04-21T12:18:43;94834.75;;;21.96;39.83
26978;BME280;56314;48.088;11.642;2023-04-21T12:21:08;94842.38;;;21.37;39.41
26978;BME280;56314;48.088;11.642;2023-04-21T12:23:34;94846.31;;;21.06;39.54
26978;BME280;56314;48.088;11.642;2023-04-21T12:25:59;94847.31;;;20.70;39.61
26978;BME280;56314;48.088;11.642;2023-04-21T12:28:25;94843.75;;;20.85;40.60
26978;BME280;56314;48.088;11.642;2023-04-21T12:30:51;94847.88;;;21.22;38.52
26978;BME280;56314;48.088;11.642;2023-04-21T12:33:16;94850.25;;;21.11;38.51
26978;BME280;56314;48.088;11.642;2023-04-21T12:35:42;94855.00;;;20.80;39.23
26978;BME280;56314;48.088;11.642;2023-04-21T12:38:07;94856.16;;;20.71;38.24
26978;BME280;56314;48.088;11.642;2023-04-21T12:40:32;94860.53;;;20.50;38.20
26978;BME280;56314;48.088;11.642;2023-04-21T12:42:58;94854.41;;;20.85;37.99
26978;BME280;56314;48.088;11.642;2023-04-21T12:45:23;94850.56;;;20.94;38.67
26978;BME280;56314;48.088;11.642;2023-04-21T12:47:48;94846.19;;;20.80;38.39
26978;BME280;56314;48.088;11.642;2023-04-21T12:50:14;94848.91;;;20.86;37.28
26978;BME280;56314;48.088;11.642;2023-04-21T12:52:40;94850.97;;;20.63;38.51
26978;BME280;56314;48.088;11.642;2023-04-21T12:55:05;94843.44;;;21.01;38.14
26978;BME280;56314;48.088;11.642;2023-04-21T12:57:31;94841.91;;;21.20;37.90
26978;BME280;56314;48.088;11.642;2023-04-21T12:59:57;94840.06;;;20.86;38.38
26978;BME280;56314;48.088;11.642;2023-04-21T13:02:22;94848.22;;;20.78;37.51
26978;BME280;56314;48.088;11.642;2023-04-21T13:04:47;94845.22;;;20.37;39.59
26978;BME280;56314;48.088;11.642;2023-04-21T13:07:13;94836.84;;;20.40;41.00